createdAt,value
2017-08-02T00:00:58.342Z,16.8
2017-08-02T00:01:59.078Z,20.8
2017-08-02T00:02:59.811Z,25.1
2017-08-02T00:04:00.548Z,21.7
2017-08-02T00:05:01.291Z,23.5
2017-08-02T00:06:02.032Z,25.1
2017-08-02T00:07:03.130Z,19.7
2017-08-02T00:08:03.857Z,21.6
2017-08-02T00:09:04.602Z,24.9
2017-08-02T00:10:05.422Z,21.1
2017-08-02T00:11:06.154Z,31.0
2017-08-02T00:12:07.311Z,23.8
2017-08-02T00:13:08.108Z,31.9
2017-08-02T00:14:08.870Z,26.6
2017-08-02T00:15:09.588Z,27.7
2017-08-02T00:16:10.336Z,38.8
2017-08-02T00:17:11.413Z,30.0
2017-08-02T00:18:12.146Z,28.5
2017-08-02T00:19:12.881Z,31.9
2017-08-02T00:20:13.709Z,27.2
2017-08-02T00:21:14.454Z,29.8
2017-08-02T00:22:15.434Z,32.8
2017-08-02T00:23:16.170Z,33.3
2017-08-02T00:24:16.919Z,36.5
2017-08-02T00:25:17.728Z,31.4
2017-08-02T00:26:18.491Z,35.5
2017-08-02T00:27:19.481Z,37.9
2017-08-02T00:28:20.218Z,37.6
2017-08-02T00:29:20.974Z,39.5
2017-08-02T00:30:21.791Z,41.1
2017-08-02T00:31:22.529Z,35.7
2017-08-02T00:32:23.508Z,42.0
2017-08-02T00:33:24.240Z,48.4
2017-08-02T00:34:25.090Z,45.1
2017-08-02T00:35:25.851Z,43.0
2017-08-02T00:36:26.644Z,40.9
2017-08-02T00:37:27.373Z,39.1
2017-08-02T00:38:28.110Z,35.9
2017-08-02T00:39:28.899Z,41.8
2017-08-02T00:40:30.003Z,37.2
2017-08-02T00:41:30.797Z,34.7
2017-08-02T00:42:31.632Z,39.9
2017-08-02T00:43:32.373Z,40.7
2017-08-02T00:44:33.106Z,41.7
2017-08-02T00:45:34.246Z,39.1
2017-08-02T00:46:34.983Z,41.9
2017-08-02T00:47:35.783Z,40.3
2017-08-02T00:48:36.580Z,40.7
2017-08-02T00:49:37.404Z,45.7
2017-08-02T00:50:38.572Z,42.8
2017-08-02T00:51:39.299Z,39.0
2017-08-02T00:52:40.131Z,41.9
2017-08-02T00:53:40.946Z,39.1
2017-08-02T00:54:41.683Z,39.2
2017-08-02T00:55:42.899Z,40.3
2017-08-02T00:56:43.633Z,40.2
2017-08-02T00:57:44.442Z,43.1
2017-08-02T00:58:45.173Z,43.1
2017-08-02T00:59:45.974Z,48.4
2017-08-02T01:00:46.796Z,43.8
2017-08-02T01:01:47.616Z,47.2
2017-08-02T01:02:48.444Z,44.7
2017-08-02T01:03:49.290Z,56.2
2017-08-02T01:04:50.511Z,58.4
2017-08-02T01:05:51.785Z,56.0
2017-08-02T01:06:52.562Z,47.1
2017-08-02T01:07:53.295Z,49.0
2017-08-02T01:08:54.106Z,51.2
2017-08-02T01:09:54.925Z,55.7
2017-08-02T01:10:56.066Z,57.9
2017-08-02T01:11:56.797Z,52.5
2017-08-02T01:12:57.529Z,57.4
2017-08-02T01:13:58.274Z,64.5
2017-08-02T01:14:59.017Z,60.0
2017-08-02T01:15:59.843Z,59.3
2017-08-02T01:17:00.928Z,59.7
2017-08-02T01:18:01.667Z,64.6
2017-08-02T01:19:02.406Z,63.9
2017-08-02T01:20:03.226Z,69.8
2017-08-02T01:21:03.972Z,55.9
2017-08-02T01:22:04.949Z,70.7
2017-08-02T01:23:05.679Z,72.4
2017-08-02T01:24:06.418Z,65.2
2017-08-02T01:25:07.168Z,79.5
2017-08-02T01:26:07.919Z,72.0
2017-08-02T01:27:08.863Z,69.5
2017-08-02T01:28:09.616Z,61.1
2017-08-02T01:29:10.438Z,64.3
2017-08-02T01:30:11.180Z,68.4
2017-08-02T01:31:11.957Z,66.0
2017-08-02T01:32:13.091Z,70.5
2017-08-02T01:33:13.902Z,72.1
2017-08-02T01:34:14.633Z,76.2
2017-08-02T01:35:15.358Z,79.9
2017-08-02T01:36:16.089Z,85.4
2017-08-02T01:37:16.890Z,83.5
2017-08-02T01:38:17.721Z,83.1
2017-08-02T01:39:18.498Z,80.0
2017-08-02T01:40:19.579Z,81.7
2017-08-02T01:41:20.327Z,86.1
2017-08-02T01:42:21.145Z,84.7
2017-08-02T01:43:21.971Z,103.2
2017-08-02T01:44:22.756Z,96.9
2017-08-02T01:45:23.839Z,92.9
2017-08-02T01:46:24.641Z,82.5
2017-08-02T01:47:25.449Z,102.5
2017-08-02T01:48:26.204Z,104.2
2017-08-02T01:49:27.005Z,90.3
2017-08-02T01:50:27.817Z,91.6
2017-08-02T01:51:28.958Z,93.3
2017-08-02T01:52:29.704Z,92.9
2017-08-02T01:53:30.430Z,92.3
2017-08-02T01:54:31.163Z,89.1
2017-08-02T01:55:31.982Z,107.1
2017-08-02T01:56:33.074Z,95.0
2017-08-02T01:57:33.898Z,80.6
2017-08-02T01:58:34.652Z,93.1
2017-08-02T01:59:35.401Z,100.7
2017-08-02T02:00:36.138Z,109.9
2017-08-02T02:01:37.220Z,98.2
2017-08-02T02:02:37.996Z,88.9
2017-08-02T02:03:38.788Z,111.0
2017-08-02T02:04:39.605Z,121.6
2017-08-02T02:05:40.397Z,100.5
2017-08-02T02:06:41.532Z,116.1
2017-08-02T02:07:42.331Z,115.8
2017-08-02T02:08:43.069Z,133.3
2017-08-02T02:09:43.887Z,116.0
2017-08-02T02:10:44.635Z,95.1
2017-08-02T02:11:45.474Z,106.4
2017-08-02T02:12:46.399Z,96.2
2017-08-02T02:13:47.156Z,103.5
2017-08-02T02:14:47.965Z,101.2
2017-08-02T02:15:48.770Z,97.9
2017-08-02T02:16:49.578Z,94.0
2017-08-02T02:17:50.696Z,103.1
2017-08-02T02:18:51.523Z,101.2
2017-08-02T02:19:52.254Z,103.8
2017-08-02T02:20:53.070Z,91.7
2017-08-02T02:21:53.881Z,92.1
2017-08-02T02:22:55.081Z,90.8
2017-08-02T02:23:55.829Z,103.2
2017-08-02T02:24:56.645Z,83.0
2017-08-02T02:25:57.451Z,89.0
2017-08-02T02:26:58.193Z,100.0
2017-08-02T02:27:59.334Z,94.6
2017-08-02T02:29:00.142Z,124.6
2017-08-02T02:30:00.938Z,131.4
2017-08-02T02:31:01.683Z,108.4
2017-08-02T02:32:02.492Z,120.9
2017-08-02T02:33:03.585Z,102.9
2017-08-02T02:34:04.365Z,116.5
2017-08-02T02:35:05.221Z,120.6
2017-08-02T02:36:05.927Z,127.0
2017-08-02T02:37:06.680Z,108.3
2017-08-02T02:38:07.874Z,127.8
2017-08-02T02:39:08.604Z,96.5
2017-08-02T02:40:09.409Z,92.6
2017-08-02T02:41:10.222Z,110.0
2017-08-02T02:42:11.038Z,105.5
2017-08-02T02:43:12.136Z,93.2
2017-08-02T02:44:12.937Z,85.5
2017-08-02T02:45:13.747Z,101.7
2017-08-02T02:46:14.575Z,97.5
2017-08-02T02:47:15.312Z,93.3
2017-08-02T02:48:16.402Z,90.2
2017-08-02T02:49:17.133Z,95.4
2017-08-02T02:50:17.873Z,113.2
2017-08-02T02:51:18.683Z,106.9
2017-08-02T02:52:19.522Z,94.2
2017-08-02T02:53:20.653Z,86.3
2017-08-02T02:54:21.475Z,91.9
2017-08-02T02:55:22.208Z,93.6
2017-08-02T02:56:22.955Z,100.2
2017-08-02T02:57:23.686Z,86.9
2017-08-02T02:58:24.838Z,114.9
2017-08-02T02:59:25.568Z,97.2
2017-08-02T03:00:26.307Z,96.8
2017-08-02T03:01:27.128Z,102.0
2017-08-02T03:02:27.944Z,103.3
2017-08-02T03:03:28.887Z,101.5
2017-08-02T03:04:29.638Z,92.5
2017-08-02T03:05:30.370Z,88.3
2017-08-02T03:06:31.105Z,87.8
2017-08-02T03:07:31.881Z,99.4
2017-08-02T03:08:33.051Z,83.0
2017-08-02T03:09:33.823Z,89.1
2017-08-02T03:10:34.561Z,102.5
2017-08-02T03:11:35.382Z,103.6
2017-08-02T03:12:36.124Z,115.7
2017-08-02T03:13:37.064Z,103.9
2017-08-02T03:14:37.877Z,98.1
2017-08-02T03:15:38.683Z,86.0
2017-08-02T03:16:39.503Z,90.5
2017-08-02T03:17:40.237Z,76.2
2017-08-02T03:18:41.361Z,77.1
2017-08-02T03:19:42.156Z,83.0
2017-08-02T03:20:42.956Z,74.0
2017-08-02T03:21:43.780Z,92.4
2017-08-02T03:22:44.588Z,97.5
2017-08-02T03:23:45.324Z,92.9
2017-08-02T03:24:46.137Z,93.5
2017-08-02T03:25:47.269Z,87.3
2017-08-02T03:26:48.012Z,88.3
2017-08-02T03:27:48.765Z,104.9
2017-08-02T03:28:49.600Z,87.1
2017-08-02T03:29:50.383Z,88.8
2017-08-02T03:30:51.215Z,95.3
2017-08-02T03:31:52.336Z,97.7
2017-08-02T03:32:53.062Z,89.8
2017-08-02T03:33:53.812Z,110.1
2017-08-02T03:34:54.612Z,100.1
2017-08-02T03:35:55.432Z,96.0
2017-08-02T03:36:56.254Z,89.7
2017-08-02T03:37:56.947Z,99.6
2017-08-02T03:38:57.691Z,104.5
2017-08-02T03:39:58.430Z,104.7
2017-08-02T03:40:59.279Z,108.0
2017-08-02T03:42:00.277Z,108.2
2017-08-02T03:43:01.022Z,112.6
2017-08-02T03:44:01.774Z,111.1
2017-08-02T03:45:02.524Z,106.8
2017-08-02T03:46:03.332Z,112.1
2017-08-02T03:47:04.480Z,115.6
2017-08-02T03:48:05.294Z,108.2
2017-08-02T03:49:06.032Z,117.7
2017-08-02T03:50:06.829Z,132.8
2017-08-02T03:51:07.595Z,123.1
2017-08-02T03:52:08.821Z,123.0
2017-08-02T03:53:09.631Z,133.3
2017-08-02T03:54:10.420Z,145.1
2017-08-02T03:55:12.155Z,140.2
2017-08-02T03:56:12.860Z,149.5
2017-08-02T03:57:13.907Z,145.6
2017-08-02T03:58:14.694Z,173.9
2017-08-02T03:59:15.515Z,143.5
2017-08-02T04:00:16.329Z,121.6
2017-08-02T04:01:17.078Z,130.9
2017-08-02T04:02:18.220Z,154.1
2017-08-02T04:03:19.038Z,133.9
2017-08-02T04:04:19.837Z,124.4
2017-08-02T04:05:20.585Z,135.4
2017-08-02T04:06:21.370Z,123.3
2017-08-02T04:07:22.506Z,138.3
2017-08-02T04:08:23.335Z,109.8
2017-08-02T04:09:24.113Z,141.3
2017-08-02T04:10:24.943Z,148.3
2017-08-02T04:11:25.679Z,149.9
2017-08-02T04:12:26.857Z,140.5
2017-08-02T04:13:27.646Z,158.6
2017-08-02T04:14:28.399Z,150.5
2017-08-02T04:15:29.220Z,162.3
2017-08-02T04:16:29.957Z,167.2
2017-08-02T04:17:31.003Z,170.5
2017-08-02T04:18:31.789Z,145.5
2017-08-02T04:19:32.606Z,180.2
2017-08-02T04:20:33.341Z,187.0
2017-08-02T04:21:34.108Z,200.9
2017-08-02T04:22:35.047Z,165.6
2017-08-02T04:23:35.799Z,160.1
2017-08-02T04:24:36.541Z,181.2
2017-08-02T04:25:37.353Z,191.5
2017-08-02T04:26:38.095Z,166.7
2017-08-02T04:27:38.917Z,181.9
2017-08-02T04:28:39.700Z,163.9
2017-08-02T04:29:40.788Z,153.1
2017-08-02T04:30:41.607Z,164.1
2017-08-02T04:31:42.408Z,155.2
2017-08-02T04:32:43.237Z,145.2
2017-08-02T04:33:44.070Z,173.2
2017-08-02T04:34:45.154Z,148.8
2017-08-02T04:35:45.962Z,179.5
2017-08-02T04:36:46.747Z,145.8
2017-08-02T04:37:47.485Z,149.7
2017-08-02T04:38:48.243Z,138.4
2017-08-02T04:39:49.395Z,128.2
2017-08-02T04:40:50.143Z,131.3
2017-08-02T04:41:50.904Z,106.4
2017-08-02T04:42:51.705Z,98.6
2017-08-02T04:43:52.461Z,88.4
2017-08-02T04:44:53.545Z,114.4
2017-08-02T04:45:54.300Z,105.0
2017-08-02T04:46:55.060Z,111.7
2017-08-02T04:47:55.804Z,93.6
2017-08-02T04:48:56.641Z,107.1
2017-08-02T04:49:57.860Z,104.8
2017-08-02T04:50:58.599Z,86.0
2017-08-02T04:51:59.351Z,81.7
2017-08-02T04:53:00.176Z,91.3
2017-08-02T04:54:00.926Z,89.3
2017-08-02T04:55:01.951Z,86.8
2017-08-02T04:56:02.697Z,87.3
2017-08-02T04:57:03.441Z,91.8
2017-08-02T04:58:04.182Z,81.9
2017-08-02T04:59:04.993Z,70.3
2017-08-02T05:00:06.158Z,91.1
2017-08-02T05:01:06.993Z,90.5
2017-08-02T05:02:07.745Z,93.4
2017-08-02T05:03:08.542Z,94.9
2017-08-02T05:04:09.329Z,77.6
2017-08-02T05:05:10.502Z,67.9
2017-08-02T05:06:11.308Z,78.0
2017-08-02T05:07:12.062Z,83.3
2017-08-02T05:08:12.870Z,74.1
2017-08-02T05:09:13.705Z,72.4
2017-08-02T05:10:14.938Z,84.4
2017-08-02T05:11:15.769Z,83.1
2017-08-02T05:12:16.599Z,80.0
2017-08-02T05:13:17.350Z,81.8
2017-08-02T05:14:18.088Z,69.7
2017-08-02T05:15:18.832Z,75.0
2017-08-02T05:16:19.583Z,71.5
2017-08-02T05:17:20.752Z,73.9
2017-08-02T05:18:21.497Z,67.7
2017-08-02T05:19:22.245Z,67.3
2017-08-02T05:20:23.075Z,62.6
2017-08-02T05:21:23.809Z,64.6
2017-08-02T05:22:24.951Z,60.3
2017-08-02T05:23:25.713Z,61.7
2017-08-02T05:24:26.445Z,63.8
2017-08-02T05:25:27.178Z,66.0
2017-08-02T05:26:27.919Z,77.5
2017-08-02T05:27:28.917Z,75.9
2017-08-02T05:28:29.671Z,72.1
2017-08-02T05:29:30.421Z,85.1
2017-08-02T05:30:31.178Z,74.0
2017-08-02T05:31:31.914Z,82.4
2017-08-02T05:32:32.846Z,84.9
2017-08-02T05:33:33.587Z,82.9
2017-08-02T05:34:34.337Z,74.3
2017-08-02T05:35:35.078Z,70.1
2017-08-02T05:36:35.840Z,67.1
2017-08-02T05:37:36.830Z,55.3
2017-08-02T05:38:37.636Z,63.9
2017-08-02T05:39:38.393Z,57.6
2017-08-02T05:40:39.119Z,50.3
2017-08-02T05:41:39.934Z,47.0
2017-08-02T05:42:41.074Z,46.2
2017-08-02T05:43:41.815Z,50.0
2017-08-02T05:44:42.553Z,42.1
2017-08-02T05:45:43.306Z,43.7
2017-08-02T05:46:44.125Z,43.6
2017-08-02T05:47:45.107Z,45.8
2017-08-02T05:48:45.859Z,43.2
2017-08-02T05:49:46.692Z,46.1
2017-08-02T05:50:47.497Z,39.3
2017-08-02T05:51:48.281Z,40.8
2017-08-02T05:52:49.316Z,42.3
2017-08-02T05:53:50.122Z,48.5
2017-08-02T05:54:50.872Z,39.9
2017-08-02T05:55:51.701Z,40.1
2017-08-02T05:56:52.441Z,34.3
2017-08-02T05:57:53.526Z,30.7
2017-08-02T05:58:54.351Z,32.7
2017-08-02T05:59:55.092Z,32.3
2017-08-02T06:00:55.897Z,30.7
2017-08-02T06:01:56.638Z,33.3
2017-08-02T06:02:57.379Z,35.1
2017-08-02T06:03:58.189Z,31.6
2017-08-02T06:04:59.274Z,29.2
2017-08-02T06:05:59.992Z,29.9
2017-08-02T06:07:00.819Z,29.3
2017-08-02T06:08:01.663Z,28.6
2017-08-02T06:09:02.424Z,21.7
2017-08-02T06:10:03.231Z,25.0
2017-08-02T06:11:04.033Z,25.5
2017-08-02T06:12:04.873Z,31.2
2017-08-02T06:13:05.593Z,25.6
2017-08-02T06:14:06.364Z,24.6
2017-08-02T06:15:07.572Z,28.7
2017-08-02T06:16:08.326Z,29.5
2017-08-02T06:17:09.147Z,22.8
2017-08-02T06:18:09.894Z,27.1
2017-08-02T06:19:10.645Z,26.4
2017-08-02T06:20:11.818Z,24.9
2017-08-02T06:21:12.556Z,21.3
2017-08-02T06:22:13.384Z,27.0
2017-08-02T06:23:14.134Z,23.1
2017-08-02T06:24:14.872Z,27.6
2017-08-02T06:25:16.017Z,23.2
2017-08-02T06:26:16.761Z,24.6
2017-08-02T06:27:17.537Z,27.9
2017-08-02T06:28:18.278Z,25.4
2017-08-02T06:29:19.034Z,24.7
2017-08-02T06:30:20.127Z,24.0
2017-08-02T06:31:20.945Z,22.7
2017-08-02T06:32:21.708Z,29.0
2017-08-02T06:33:22.518Z,21.1
2017-08-02T06:34:23.262Z,24.7
2017-08-02T06:35:24.363Z,24.9
2017-08-02T06:36:25.178Z,32.0
2017-08-02T06:37:25.917Z,29.2
2017-08-02T06:38:26.657Z,30.5
2017-08-02T06:39:27.407Z,25.0
2017-08-02T06:40:28.508Z,25.2
2017-08-02T06:41:29.336Z,30.2
2017-08-02T06:42:30.193Z,21.7
2017-08-02T06:43:31.021Z,20.3
2017-08-02T06:44:31.758Z,24.9
2017-08-02T06:45:32.510Z,22.1
2017-08-02T06:46:33.708Z,24.1
2017-08-02T06:47:34.511Z,21.7
2017-08-02T06:48:35.301Z,25.6
2017-08-02T06:49:36.040Z,23.2
2017-08-02T06:50:36.861Z,28.9
2017-08-02T06:51:37.805Z,23.6
2017-08-02T06:52:38.687Z,20.9
2017-08-02T06:53:39.521Z,18.9
2017-08-02T06:54:40.270Z,22.1
2017-08-02T06:55:41.103Z,21.7
2017-08-02T06:56:42.401Z,21.6
2017-08-02T06:57:43.468Z,24.0
2017-08-02T06:58:44.274Z,19.8
2017-08-02T06:59:45.088Z,17.8
2017-08-02T07:00:45.890Z,21.2
2017-08-02T07:01:46.644Z,21.5
2017-08-02T07:02:47.536Z,17.3
2017-08-02T07:03:49.652Z,19.6
2017-08-02T07:04:50.499Z,22.1
2017-08-02T07:05:51.248Z,20.8
2017-08-02T07:06:52.064Z,20.6
2017-08-02T07:07:52.876Z,24.7
2017-08-02T07:08:53.632Z,20.8
2017-08-02T07:09:54.782Z,18.9
2017-08-02T07:10:55.604Z,16.5
2017-08-02T07:11:56.433Z,21.8
2017-08-02T07:12:57.267Z,14.8
2017-08-02T07:13:58.079Z,17.5
2017-08-02T07:14:59.203Z,19.7
2017-08-02T07:16:00.027Z,16.7
2017-08-02T07:17:00.937Z,18.5
2017-08-02T07:18:01.707Z,18.9
2017-08-02T07:19:02.446Z,19.4
2017-08-02T07:20:03.547Z,16.9
2017-08-02T07:21:04.303Z,15.3
2017-08-02T07:22:05.091Z,19.7
2017-08-02T07:23:05.918Z,17.8
2017-08-02T07:24:06.662Z,18.9
2017-08-02T07:25:07.769Z,16.5
2017-08-02T07:26:08.606Z,16.0
2017-08-02T07:27:09.349Z,22.8
2017-08-02T07:28:10.192Z,23.4
2017-08-02T07:29:11.000Z,20.1
2017-08-02T07:30:11.762Z,21.0
2017-08-02T07:31:12.515Z,25.4
2017-08-02T07:32:13.363Z,19.3
2017-08-02T07:33:14.516Z,28.1
2017-08-02T07:34:15.268Z,25.1
2017-08-02T07:35:16.017Z,21.8
2017-08-02T07:36:16.767Z,21.4
2017-08-02T07:37:17.525Z,25.0
2017-08-02T07:38:18.269Z,28.6
2017-08-02T07:39:19.217Z,23.3
2017-08-02T07:40:20.039Z,28.4
2017-08-02T07:41:20.786Z,27.5
2017-08-02T07:42:21.588Z,29.8
2017-08-02T07:43:22.418Z,23.6
2017-08-02T07:44:23.428Z,29.1
2017-08-02T07:45:24.180Z,22.6
2017-08-02T07:46:24.924Z,29.7
2017-08-02T07:47:25.675Z,26.1
2017-08-02T07:48:26.484Z,24.2
2017-08-02T07:49:27.731Z,25.3
2017-08-02T07:50:28.552Z,25.9
2017-08-02T07:51:29.649Z,29.3
2017-08-02T07:52:30.712Z,30.1
2017-08-02T07:53:31.498Z,32.3
2017-08-02T07:54:32.475Z,42.2
2017-08-02T07:55:33.268Z,39.7
2017-08-02T07:56:34.014Z,42.1
2017-08-02T07:57:34.764Z,33.9
2017-08-02T07:58:35.591Z,39.1
2017-08-02T07:59:36.671Z,41.0
2017-08-02T08:00:37.559Z,37.0
2017-08-02T08:01:38.351Z,42.4
2017-08-02T08:02:39.090Z,46.4
2017-08-02T08:03:39.844Z,40.3
2017-08-02T08:04:40.668Z,39.7
2017-08-02T08:05:41.480Z,45.6
2017-08-02T08:06:42.216Z,43.0
2017-08-02T08:07:42.975Z,39.4
2017-08-02T08:08:44.098Z,43.6
2017-08-02T08:09:44.924Z,52.5
2017-08-02T08:10:45.776Z,44.6
2017-08-02T08:11:46.494Z,46.2
2017-08-02T08:12:47.414Z,50.1
2017-08-02T08:13:48.614Z,46.2
2017-08-02T08:14:49.364Z,48.9
2017-08-02T08:15:50.109Z,49.5
2017-08-02T08:16:50.940Z,51.0
2017-08-02T08:17:51.762Z,48.3
2017-08-02T08:18:52.871Z,58.0
2017-08-02T08:19:53.657Z,54.8
2017-08-02T08:20:54.464Z,53.8
2017-08-02T08:21:55.227Z,52.3
2017-08-02T08:22:56.043Z,49.1
2017-08-02T08:23:56.789Z,46.7
2017-08-02T08:24:57.556Z,50.0
2017-08-02T08:25:58.581Z,52.1
2017-08-02T08:26:59.414Z,50.2
2017-08-02T08:28:00.262Z,50.3
2017-08-02T08:29:01.056Z,53.0
2017-08-02T08:30:01.865Z,44.7
2017-08-02T08:31:02.953Z,49.8
2017-08-02T08:32:03.689Z,48.7
2017-08-02T08:33:04.446Z,59.1
2017-08-02T08:34:05.220Z,52.3
2017-08-02T08:35:05.965Z,46.0
2017-08-02T08:36:07.114Z,47.8
2017-08-02T08:37:07.924Z,47.9
2017-08-02T08:38:08.663Z,48.4
2017-08-02T08:39:09.508Z,41.7
2017-08-02T08:40:10.261Z,44.9
2017-08-02T08:41:11.488Z,43.3
2017-08-02T08:42:12.316Z,39.2
2017-08-02T08:43:13.069Z,42.2
2017-08-02T08:44:13.866Z,41.3
2017-08-02T08:45:14.697Z,46.6
2017-08-02T08:46:15.843Z,43.8
2017-08-02T08:47:16.570Z,44.3
2017-08-02T08:48:17.311Z,39.2
2017-08-02T08:49:18.147Z,43.3
2017-08-02T08:50:18.911Z,36.7
2017-08-02T08:51:19.912Z,37.1
2017-08-02T08:52:20.718Z,39.1
2017-08-02T08:53:21.459Z,38.7
2017-08-02T08:54:22.219Z,41.9
2017-08-02T08:55:23.038Z,40.5
2017-08-02T08:56:24.058Z,34.3
2017-08-02T08:57:24.886Z,33.6
2017-08-02T08:58:25.678Z,42.8
2017-08-02T08:59:26.419Z,42.9
2017-08-02T09:00:27.169Z,35.1
2017-08-02T09:01:28.362Z,36.6
2017-08-02T09:02:29.189Z,35.5
2017-08-02T09:03:29.981Z,38.5
2017-08-02T09:04:30.730Z,33.1
2017-08-02T09:05:31.478Z,39.0
2017-08-02T09:06:32.527Z,34.1
2017-08-02T09:07:33.277Z,38.2
2017-08-02T09:08:34.041Z,36.4
2017-08-02T09:09:34.794Z,32.3
2017-08-02T09:10:35.545Z,33.4
2017-08-02T09:11:36.369Z,37.7
2017-08-02T09:12:37.125Z,30.5
2017-08-02T09:13:38.191Z,32.1
2017-08-02T09:14:38.941Z,42.2
2017-08-02T09:15:39.772Z,35.1
2017-08-02T09:16:40.582Z,31.2
2017-08-02T09:17:41.397Z,34.9
2017-08-02T09:18:42.165Z,37.2
2017-08-02T09:19:43.280Z,35.7
2017-08-02T09:20:44.032Z,33.6
2017-08-02T09:21:44.877Z,34.0
2017-08-02T09:22:45.705Z,38.2
2017-08-02T09:23:46.525Z,38.5
2017-08-02T09:24:47.267Z,33.1
2017-08-02T09:25:48.322Z,38.1
2017-08-02T09:26:49.068Z,38.1
2017-08-02T09:27:49.833Z,42.5
2017-08-02T09:28:50.648Z,37.7
2017-08-02T09:29:51.457Z,42.8
2017-08-02T09:30:52.277Z,39.4
2017-08-02T09:31:53.221Z,45.4
2017-08-02T09:32:53.975Z,41.9
2017-08-02T09:33:54.773Z,41.8
2017-08-02T09:34:55.507Z,41.1
2017-08-02T09:35:56.346Z,35.6
2017-08-02T09:36:57.447Z,37.5
2017-08-02T09:37:58.205Z,40.5
2017-08-02T09:38:59.041Z,38.4
2017-08-02T09:39:59.857Z,35.1
2017-08-02T09:41:00.607Z,39.0
2017-08-02T09:42:01.664Z,33.0
2017-08-02T09:43:02.489Z,41.5
2017-08-02T09:44:03.222Z,39.3
2017-08-02T09:45:04.058Z,37.4
2017-08-02T09:46:04.877Z,34.7
2017-08-02T09:47:05.982Z,42.2
2017-08-02T09:48:06.775Z,34.5
2017-08-02T09:49:07.604Z,36.2
2017-08-02T09:50:08.432Z,39.1
2017-08-02T09:51:09.256Z,31.8
2017-08-02T09:52:10.320Z,34.5
2017-08-02T09:53:11.068Z,37.2
2017-08-02T09:54:11.807Z,30.7
2017-08-02T09:55:12.561Z,31.8
2017-08-02T09:56:13.311Z,30.3
2017-08-02T09:57:14.328Z,33.5
2017-08-02T09:58:15.170Z,27.0
2017-08-02T09:59:15.922Z,29.7
2017-08-02T10:00:16.741Z,29.4
2017-08-02T10:01:17.575Z,35.7
2017-08-02T10:02:18.739Z,29.6
2017-08-02T10:03:19.494Z,29.0
2017-08-02T10:04:20.310Z,24.7
2017-08-02T10:05:21.063Z,24.6
2017-08-02T10:06:21.821Z,16.2
2017-08-02T10:07:22.846Z,17.3
2017-08-02T10:08:23.600Z,16.0
2017-08-02T10:09:24.351Z,15.3
2017-08-02T10:10:25.178Z,12.0
2017-08-02T10:11:25.928Z,11.5
2017-08-02T10:12:26.687Z,11.0
2017-08-02T10:13:27.556Z,10.9
2017-08-02T10:14:28.313Z,9.4
2017-08-02T10:15:29.469Z,9.9
2017-08-02T10:16:30.352Z,12.0
2017-08-02T10:17:31.172Z,10.7
2017-08-02T10:18:31.918Z,11.6
2017-08-02T10:19:32.661Z,11.1
2017-08-02T10:20:33.722Z,12.1
2017-08-02T10:21:34.547Z,13.9
2017-08-02T10:22:35.292Z,14.9
2017-08-02T10:23:36.117Z,14.9
2017-08-02T10:24:36.890Z,12.9
2017-08-02T10:25:37.973Z,14.4
2017-08-02T10:26:38.837Z,8.8
2017-08-02T10:27:39.713Z,10.4
2017-08-02T10:28:41.641Z,12.3
2017-08-02T10:29:42.350Z,7.7
2017-08-02T10:30:43.491Z,11.0
2017-08-02T10:31:44.244Z,6.9
2017-08-02T10:32:44.986Z,8.0
2017-08-02T10:33:46.131Z,14.1
2017-08-02T10:34:46.837Z,8.3
2017-08-02T10:35:48.003Z,11.2
2017-08-02T10:36:48.755Z,11.0
2017-08-02T10:37:49.879Z,10.5
2017-08-02T10:38:50.657Z,11.9
2017-08-02T10:39:51.411Z,12.1
2017-08-02T10:40:52.372Z,9.6
2017-08-02T10:41:53.112Z,12.0
2017-08-02T10:42:53.933Z,11.9
2017-08-02T10:43:54.683Z,10.5
2017-08-02T10:44:55.522Z,9.0
2017-08-02T10:45:56.663Z,9.8
2017-08-02T10:46:57.422Z,6.8
2017-08-02T10:47:58.771Z,9.5
2017-08-02T10:48:59.727Z,10.6
2017-08-02T10:50:00.480Z,11.0
2017-08-02T10:51:01.577Z,14.3
2017-08-02T10:52:02.497Z,11.0
2017-08-02T10:53:03.241Z,12.0
2017-08-02T10:54:04.034Z,8.2
2017-08-02T10:55:05.000Z,12.5
2017-08-02T10:56:06.151Z,11.2
2017-08-02T10:57:06.940Z,13.5
2017-08-02T10:58:07.687Z,11.7
2017-08-02T10:59:08.429Z,14.9
2017-08-02T11:00:09.273Z,8.6
2017-08-02T11:01:10.489Z,10.4
2017-08-02T11:02:11.251Z,12.9
2017-08-02T11:03:12.048Z,11.5
2017-08-02T11:04:12.870Z,10.3
2017-08-02T11:05:13.681Z,10.3
2017-08-02T11:06:14.772Z,10.5
2017-08-02T11:07:15.597Z,9.1
2017-08-02T11:08:16.339Z,10.3
2017-08-02T11:09:17.092Z,8.1
2017-08-02T11:10:17.842Z,11.3
2017-08-02T11:11:18.894Z,9.2
2017-08-02T11:12:19.688Z,8.4
2017-08-02T11:13:20.439Z,15.7
2017-08-02T11:14:21.263Z,13.3
2017-08-02T11:15:22.019Z,12.8
2017-08-02T11:16:22.771Z,9.4
2017-08-02T11:17:23.518Z,7.5
2017-08-02T11:18:24.256Z,9.3
2017-08-02T11:19:25.356Z,8.0
2017-08-02T11:20:26.058Z,7.3
2017-08-02T11:21:26.803Z,11.4
2017-08-02T11:22:27.639Z,8.4
2017-08-02T11:23:28.471Z,8.3
2017-08-02T11:24:29.599Z,7.8
2017-08-02T11:25:30.421Z,7.0
2017-08-02T11:26:31.242Z,9.1
2017-08-02T11:27:32.012Z,9.9
2017-08-02T11:28:32.827Z,7.9
2017-08-02T11:29:33.882Z,9.4
2017-08-02T11:30:34.631Z,6.8
2017-08-02T11:31:35.420Z,7.0
2017-08-02T11:32:36.124Z,7.2
2017-08-02T11:33:36.868Z,9.4
2017-08-02T11:34:37.628Z,7.7
2017-08-02T11:35:38.384Z,11.0
2017-08-02T11:36:39.208Z,11.6
2017-08-02T11:37:40.220Z,10.9
2017-08-02T11:38:41.033Z,7.5
2017-08-02T11:39:41.793Z,6.8
2017-08-02T11:40:42.547Z,6.2
2017-08-02T11:41:43.299Z,8.0
2017-08-02T11:42:44.352Z,6.9
2017-08-02T11:43:45.083Z,7.5
2017-08-02T11:44:45.925Z,8.9
2017-08-02T11:45:46.867Z,9.1
2017-08-02T11:46:47.923Z,11.8
2017-08-02T11:47:49.687Z,7.2
2017-08-02T11:48:50.412Z,12.8
2017-08-02T11:49:51.232Z,6.3
2017-08-02T11:50:52.153Z,8.4
2017-08-02T11:51:52.905Z,6.3
2017-08-02T11:52:53.667Z,9.3
2017-08-02T11:53:54.518Z,6.5
2017-08-02T11:54:55.340Z,9.8
2017-08-02T11:55:56.449Z,9.4
2017-08-02T11:56:57.195Z,6.3
2017-08-02T11:57:57.961Z,6.3
2017-08-02T11:58:58.744Z,9.4
2017-08-02T11:59:59.484Z,6.0
2017-08-02T12:01:00.674Z,9.8
2017-08-02T12:02:01.490Z,5.2
2017-08-02T12:03:02.238Z,7.2
2017-08-02T12:04:02.998Z,7.0
2017-08-02T12:05:03.747Z,5.0
2017-08-02T12:06:04.871Z,5.3
2017-08-02T12:07:05.623Z,3.9
2017-08-02T12:08:06.454Z,8.5
2017-08-02T12:09:07.238Z,5.5
2017-08-02T12:10:07.987Z,8.2
2017-08-02T12:11:09.044Z,6.3
2017-08-02T12:12:09.787Z,6.4
2017-08-02T12:13:10.551Z,7.0
2017-08-02T12:14:11.313Z,6.4
2017-08-02T12:15:12.122Z,7.3
2017-08-02T12:16:13.285Z,9.1
2017-08-02T12:17:14.088Z,9.2
2017-08-02T12:18:14.921Z,6.0
2017-08-02T12:19:15.682Z,7.5
2017-08-02T12:20:16.433Z,9.1
2017-08-02T12:21:17.190Z,11.1
2017-08-02T12:22:18.187Z,9.7
2017-08-02T12:23:18.957Z,7.1
2017-08-02T12:24:19.768Z,8.2
2017-08-02T12:25:20.512Z,4.5
2017-08-02T12:26:21.250Z,5.7
2017-08-02T12:27:22.346Z,9.0
2017-08-02T12:28:23.089Z,4.8
2017-08-02T12:29:23.950Z,4.2
2017-08-02T12:30:24.778Z,7.1
2017-08-02T12:31:25.540Z,9.6
2017-08-02T12:32:26.610Z,11.2
2017-08-02T12:33:27.362Z,7.0
2017-08-02T12:34:28.111Z,6.6
2017-08-02T12:35:28.896Z,5.4
2017-08-02T12:36:29.696Z,10.0
2017-08-02T12:37:31.356Z,5.2
2017-08-02T12:38:32.282Z,4.7
2017-08-02T12:39:33.110Z,8.5
2017-08-02T12:40:33.927Z,9.2
2017-08-02T12:41:34.765Z,6.1
2017-08-02T12:42:35.763Z,8.1
2017-08-02T12:43:36.580Z,6.5
2017-08-02T12:44:37.611Z,9.9
2017-08-02T12:45:38.317Z,10.5
2017-08-02T12:46:39.128Z,8.3
2017-08-02T12:47:40.196Z,6.2
2017-08-02T12:48:41.009Z,8.9
2017-08-02T12:49:41.774Z,4.5
2017-08-02T12:50:42.580Z,4.4
2017-08-02T12:51:43.387Z,7.8
2017-08-02T12:52:44.357Z,3.5
2017-08-02T12:53:45.188Z,7.5
2017-08-02T12:54:45.940Z,10.0
2017-08-02T12:55:46.757Z,11.4
2017-08-02T12:56:47.506Z,4.4
2017-08-02T12:57:48.654Z,5.3
2017-08-02T12:58:49.391Z,4.1
2017-08-02T12:59:50.211Z,4.4
2017-08-02T13:00:50.980Z,4.6
2017-08-02T13:01:51.728Z,3.7
2017-08-02T13:02:52.558Z,6.6
2017-08-02T13:03:53.309Z,7.6
2017-08-02T13:04:54.525Z,7.2
2017-08-02T13:05:55.269Z,8.0
2017-08-02T13:06:56.023Z,5.2
2017-08-02T13:07:56.857Z,5.8
2017-08-02T13:08:57.641Z,5.2
2017-08-02T13:09:58.376Z,4.6
2017-08-02T13:10:59.481Z,4.7
2017-08-02T13:12:00.194Z,5.3
2017-08-02T13:13:00.890Z,5.5
2017-08-02T13:14:01.639Z,6.0
2017-08-02T13:15:02.388Z,4.3
2017-08-02T13:16:03.136Z,4.1
2017-08-02T13:17:04.229Z,5.3
2017-08-02T13:18:05.075Z,3.6
2017-08-02T13:19:06.130Z,6.6
2017-08-02T13:20:06.923Z,4.2
2017-08-02T13:21:07.682Z,9.4
2017-08-02T13:22:08.740Z,4.1
2017-08-02T13:23:09.493Z,4.6
2017-08-02T13:24:10.253Z,7.1
2017-08-02T13:25:10.998Z,3.9
2017-08-02T13:26:11.811Z,4.6
2017-08-02T13:27:12.935Z,6.5
2017-08-02T13:28:13.732Z,5.6
2017-08-02T13:29:14.577Z,4.0
2017-08-02T13:30:15.332Z,4.2
2017-08-02T13:31:16.159Z,6.5